Accueil
METAR-TAF:

METAR-TAF

Aéroports :

Aéroport international de Paro

Thimphou, Inde

latitude: 27-24-32N, longitude: 89-25-14E, altitude: 2235 m

Observation

Le bulletin a été fait il y a 32 minutes, à 08:00 UTC
Vent 7 kt de sud-est, variant entre est et sud
Température 31°C
Humidité 36%
Pression 1011 hPa
Visibilité 10 km ou plus
Nuages épars à une hauteur de 4000 ft
Nuages épars à une hauteur de 10000 ft

METAR: VQPR 140800Z 14007KT 090V170 9999 SCT040 SCT100 31/14 Q1011

Heure: 14:32 (08:32 UTC)


TAF: absent

Observations et prévisions météorologiques de plus de 4000 aéroports (messages METAR et TAF).

Les stations disponibles sont représentées par des disques jaunes et rouges sur la carte.

Passer la souris dessus pour voir le nom de la station.

Cliquer dessus pour voir les observations et prévisions météorologiques.

Pour changer de carte: cliquez sur les boutons verts avec une croix noire pour zoomer, sur le bouton vert avec un tiret pour effectuer un zoom arrière, ou sur les flèches vertes pour les cartes adjacentes.


METAR-TAF: